createdAt,value
2022-12-09T00:01:32.482Z,7.14
2022-12-09T00:04:01.418Z,7.14
2022-12-09T00:06:30.420Z,7.12
2022-12-09T00:08:58.552Z,7.07
2022-12-09T00:11:26.751Z,7.15
2022-12-09T00:13:55.847Z,7.18
2022-12-09T00:16:24.105Z,7.22
2022-12-09T00:18:53.605Z,7.24
2022-12-09T00:21:22.618Z,7.22
2022-12-09T00:23:50.844Z,7.17
2022-12-09T00:26:19.382Z,7.14
2022-12-09T00:28:47.609Z,7.12
2022-12-09T00:31:17.386Z,7.12
2022-12-09T00:33:45.492Z,7.17
2022-12-09T00:36:16.030Z,7.22
2022-12-09T00:38:44.052Z,7.28
2022-12-09T00:41:12.176Z,7.35
2022-12-09T00:43:40.385Z,7.39
2022-12-09T00:46:08.330Z,7.41
2022-12-09T00:48:38.643Z,7.37
2022-12-09T00:51:07.204Z,7.33
2022-12-09T00:53:36.707Z,7.32
2022-12-09T00:56:04.794Z,7.28
2022-12-09T00:58:32.797Z,7.24
2022-12-09T01:01:00.835Z,7.16
2022-12-09T01:03:28.976Z,7.05
2022-12-09T01:05:57.071Z,6.93
2022-12-09T01:08:25.200Z,6.79
2022-12-09T01:10:54.548Z,6.67
2022-12-09T01:13:22.494Z,6.53
2022-12-09T01:15:50.528Z,6.38
2022-12-09T01:18:18.485Z,6.29
2022-12-09T01:20:56.487Z,6.22
2022-12-09T01:23:24.442Z,6.19
2022-12-09T01:25:52.617Z,6.10
2022-12-09T01:28:21.907Z,6.04
2022-12-09T01:30:49.961Z,6.00
2022-12-09T01:33:18.113Z,5.98
2022-12-09T01:35:46.067Z,5.99
2022-12-09T01:38:14.078Z,6.00
2022-12-09T01:40:46.579Z,6.02
2022-12-09T01:43:18.707Z,6.00
2022-12-09T01:45:49.256Z,5.91
2022-12-09T01:48:18.213Z,5.86
2022-12-09T01:50:48.874Z,5.80
2022-12-09T01:53:16.964Z,5.75
2022-12-09T01:55:45.124Z,5.68
2022-12-09T01:58:13.070Z,5.64
2022-12-09T02:00:41.147Z,5.57
2022-12-09T02:03:10.666Z,5.50
2022-12-09T02:05:39.058Z,5.43
2022-12-09T02:08:08.500Z,5.38
2022-12-09T02:10:36.678Z,5.33
2022-12-09T02:13:08.404Z,5.25
2022-12-09T02:15:38.850Z,5.21
2022-12-09T02:18:12.027Z,5.18
2022-12-09T02:20:41.785Z,5.14
2022-12-09T02:23:12.834Z,5.04
2022-12-09T02:25:43.333Z,5.11
2022-12-09T02:28:29.097Z,5.11
2022-12-09T02:31:02.341Z,5.12
2022-12-09T02:33:40.026Z,5.18
2022-12-09T02:36:12.917Z,5.14
2022-12-09T02:38:41.509Z,5.14
2022-12-09T02:41:11.680Z,5.22
2022-12-09T02:43:45.081Z,5.21
2022-12-09T02:46:17.548Z,5.18
2022-12-09T02:48:48.683Z,5.19
2022-12-09T02:51:18.831Z,5.13
2022-12-09T02:53:47.873Z,5.13
2022-12-09T02:56:16.293Z,5.07
2022-12-09T02:58:44.525Z,5.03
2022-12-09T03:01:21.296Z,5.03
2022-12-09T03:03:49.419Z,5.01
2022-12-09T03:06:19.469Z,5.01
2022-12-09T03:08:48.325Z,5.00
2022-12-09T03:11:17.545Z,5.00
2022-12-09T03:13:50.096Z,5.01
2022-12-09T03:16:21.536Z,4.99
2022-12-09T03:18:53.461Z,4.99
2022-12-09T03:21:22.973Z,4.96
2022-12-09T03:23:51.127Z,4.91
2022-12-09T03:26:19.079Z,4.87
2022-12-09T03:28:49.222Z,4.83
2022-12-09T03:31:19.159Z,4.84
2022-12-09T03:33:47.934Z,4.84
2022-12-09T03:36:16.379Z,4.85
2022-12-09T03:38:45.683Z,4.83
2022-12-09T03:41:16.657Z,4.80
2022-12-09T03:43:45.677Z,4.78
2022-12-09T03:46:13.807Z,4.77
2022-12-09T03:48:41.787Z,4.75
2022-12-09T03:51:11.764Z,4.71
2022-12-09T03:53:43.677Z,4.68
2022-12-09T03:56:15.912Z,4.70
2022-12-09T03:58:44.090Z,4.70
2022-12-09T04:01:12.810Z,4.66
2022-12-09T04:03:40.986Z,4.61
2022-12-09T04:06:09.525Z,4.57
2022-12-09T04:08:37.976Z,4.51
2022-12-09T04:11:06.243Z,4.45
2022-12-09T04:13:35.637Z,4.40
2022-12-09T04:16:03.706Z,4.34
2022-12-09T04:18:32.096Z,4.29
2022-12-09T04:21:00.260Z,4.27
2022-12-09T04:23:28.482Z,4.29
2022-12-09T04:25:56.684Z,4.34
2022-12-09T04:28:24.832Z,4.36
2022-12-09T04:30:54.216Z,4.35
2022-12-09T04:33:22.232Z,4.33
2022-12-09T04:35:50.378Z,4.31
2022-12-09T04:38:18.493Z,4.26
2022-12-09T04:40:46.696Z,4.20
2022-12-09T04:43:14.640Z,4.13
2022-12-09T04:45:42.953Z,4.09
2022-12-09T04:48:12.798Z,4.08
2022-12-09T04:50:41.817Z,4.09
2022-12-09T04:53:09.800Z,4.08
2022-12-09T04:55:37.800Z,4.07
2022-12-09T04:58:05.815Z,4.06
2022-12-09T05:00:33.881Z,4.06
2022-12-09T05:03:02.396Z,4.09
2022-12-09T05:05:32.105Z,4.10
2022-12-09T05:08:00.448Z,4.10
2022-12-09T05:10:28.856Z,4.08
2022-12-09T05:12:57.263Z,4.07
2022-12-09T05:15:25.289Z,4.04
2022-12-09T05:17:54.054Z,4.00
2022-12-09T05:20:22.141Z,3.96
2022-12-09T05:22:52.691Z,3.97
2022-12-09T05:25:20.931Z,3.97
2022-12-09T05:27:48.868Z,3.97
2022-12-09T05:30:17.527Z,3.97
2022-12-09T05:32:45.683Z,3.98
2022-12-09T05:35:13.745Z,3.95
2022-12-09T05:37:41.800Z,3.90
2022-12-09T05:40:12.470Z,3.81
2022-12-09T05:42:42.147Z,3.79
2022-12-09T05:45:11.026Z,3.73
2022-12-09T05:47:39.535Z,3.74
2022-12-09T05:50:09.171Z,3.71
2022-12-09T05:52:37.783Z,3.70
2022-12-09T05:55:06.326Z,3.71
2022-12-09T05:57:36.072Z,3.73
2022-12-09T06:00:05.649Z,3.75
2022-12-09T06:02:34.955Z,3.75
2022-12-09T06:05:04.082Z,3.77
2022-12-09T06:07:32.623Z,3.72
2022-12-09T06:10:01.319Z,3.69
2022-12-09T06:12:29.888Z,3.60
2022-12-09T06:14:59.577Z,3.59
2022-12-09T06:17:27.782Z,3.53
2022-12-09T06:19:55.953Z,3.51
2022-12-09T06:22:24.741Z,3.50
2022-12-09T06:24:56.934Z,3.48
2022-12-09T06:27:25.267Z,3.47
2022-12-09T06:29:53.554Z,3.45
2022-12-09T06:32:23.236Z,3.42
2022-12-09T06:34:51.555Z,3.40
2022-12-09T06:37:19.605Z,3.41
2022-12-09T06:39:48.506Z,3.41
2022-12-09T06:42:16.741Z,3.40
2022-12-09T06:44:44.899Z,3.37
2022-12-09T06:47:13.261Z,3.38
2022-12-09T06:49:42.886Z,3.39
2022-12-09T06:52:11.138Z,3.39
2022-12-09T06:54:39.553Z,3.42
2022-12-09T06:57:07.894Z,3.42
2022-12-09T06:59:35.989Z,3.41
2022-12-09T07:02:04.513Z,3.39
2022-12-09T07:04:33.208Z,3.40
2022-12-09T07:07:03.205Z,3.41
2022-12-09T07:09:31.661Z,3.42
2022-12-09T07:11:59.950Z,3.43
2022-12-09T07:14:28.212Z,3.25
2022-12-09T07:16:56.594Z,3.43
2022-12-09T07:19:24.917Z,3.44
2022-12-09T07:21:53.796Z,3.44
2022-12-09T07:24:23.280Z,3.44
2022-12-09T07:26:51.474Z,3.44
2022-12-09T07:29:19.604Z,3.44
2022-12-09T07:31:48.603Z,3.42
2022-12-09T07:34:17.001Z,3.40
2022-12-09T07:36:45.473Z,3.40
2022-12-09T07:39:14.953Z,3.36
2022-12-09T07:41:44.842Z,3.34
2022-12-09T07:44:13.569Z,3.31
2022-12-09T07:46:41.991Z,3.22
2022-12-09T07:49:11.772Z,3.27
2022-12-09T07:51:40.167Z,3.26
2022-12-09T07:54:08.198Z,3.30
2022-12-09T07:56:36.121Z,3.33
2022-12-09T07:59:07.163Z,3.36
2022-12-09T08:01:35.217Z,3.29
2022-12-09T08:04:03.537Z,3.29
2022-12-09T08:06:32.243Z,3.29
2022-12-09T08:09:00.922Z,3.27
2022-12-09T08:11:30.210Z,3.27
2022-12-09T08:13:58.924Z,3.25
2022-12-09T08:16:29.187Z,3.34
2022-12-09T08:18:57.519Z,3.36
2022-12-09T08:21:27.807Z,3.31
2022-12-09T08:23:56.198Z,3.44
2022-12-09T08:26:24.994Z,3.51
2022-12-09T08:28:54.088Z,3.56
2022-12-09T08:31:23.892Z,3.65
2022-12-09T08:33:53.967Z,3.72
2022-12-09T08:36:23.132Z,3.80
2022-12-09T08:38:51.602Z,3.87
2022-12-09T08:41:21.458Z,3.94
2022-12-09T08:43:49.976Z,3.99
2022-12-09T08:46:18.117Z,4.04
2022-12-09T08:48:46.482Z,4.08
2022-12-09T08:51:16.485Z,4.15
2022-12-09T08:53:44.929Z,4.17
2022-12-09T08:56:16.927Z,4.24
2022-12-09T08:58:45.390Z,4.24
2022-12-09T09:01:16.437Z,4.27
2022-12-09T09:03:44.947Z,4.28
2022-12-09T09:06:13.335Z,4.33
2022-12-09T09:08:43.425Z,4.40
2022-12-09T09:11:11.822Z,4.50
2022-12-09T09:13:40.808Z,4.57
2022-12-09T09:16:10.588Z,4.67
2022-12-09T09:18:39.285Z,4.77
2022-12-09T09:21:08.297Z,4.86
2022-12-09T09:23:36.708Z,4.96
2022-12-09T09:26:06.370Z,5.01
2022-12-09T09:28:34.815Z,5.04
2022-12-09T09:31:03.371Z,5.08
2022-12-09T09:33:31.679Z,5.13
2022-12-09T09:36:02.774Z,5.16
2022-12-09T09:38:34.005Z,5.19
2022-12-09T09:41:02.151Z,5.25
2022-12-09T09:43:34.976Z,5.32
2022-12-09T09:46:03.587Z,5.37
2022-12-09T09:48:33.401Z,5.38
2022-12-09T09:51:04.411Z,5.53
2022-12-09T09:53:33.647Z,5.64
2022-12-09T09:56:02.754Z,5.72
2022-12-09T09:58:35.700Z,5.79
2022-12-09T10:01:05.321Z,5.88
2022-12-09T10:03:39.667Z,6.00
2022-12-09T10:06:10.813Z,6.08
2022-12-09T10:08:43.505Z,6.15
2022-12-09T10:11:16.799Z,6.19
2022-12-09T10:13:50.630Z,6.24
2022-12-09T10:16:20.070Z,6.29
2022-12-09T10:19:05.743Z,6.33
2022-12-09T10:21:36.785Z,6.37
2022-12-09T10:24:21.358Z,6.51
2022-12-09T10:27:09.700Z,6.72
2022-12-09T10:29:52.904Z,7.11
2022-12-09T10:32:22.296Z,7.51
2022-12-09T10:34:50.641Z,7.50
2022-12-09T10:37:37.524Z,7.20
2022-12-09T10:40:17.772Z,7.43
2022-12-09T10:43:04.893Z,7.93
2022-12-09T10:46:07.825Z,8.37
2022-12-09T10:48:27.710Z,9.04
2022-12-09T10:50:59.414Z,9.58
2022-12-09T10:53:28.015Z,10.07
2022-12-09T10:55:56.814Z,10.52
2022-12-09T10:58:26.263Z,10.88
2022-12-09T11:01:09.713Z,11.25
2022-12-09T11:03:39.874Z,11.55
2022-12-09T11:06:17.734Z,11.85
2022-12-09T11:08:51.582Z,12.14
2022-12-09T11:11:20.073Z,12.37
2022-12-09T11:13:48.794Z,12.63
2022-12-09T11:16:18.193Z,12.82
2022-12-09T11:18:48.305Z,12.98
2022-12-09T11:21:33.454Z,13.15
2022-12-09T11:24:03.663Z,13.36
2022-12-09T11:26:37.611Z,13.62
2022-12-09T11:29:07.523Z,13.70
2022-12-09T11:31:39.974Z,13.56
2022-12-09T11:34:17.145Z,13.53
2022-12-09T11:36:48.305Z,13.47
2022-12-09T11:39:23.167Z,13.70
2022-12-09T11:42:16.615Z,13.92
2022-12-09T11:44:52.008Z,13.80
2022-12-09T11:47:28.515Z,13.80
2022-12-09T11:50:05.570Z,13.83
2022-12-09T11:52:33.668Z,13.86
2022-12-09T11:55:11.118Z,13.83
2022-12-09T11:57:42.701Z,13.45
2022-12-09T12:00:18.221Z,13.00
2022-12-09T12:02:48.788Z,12.59
2022-12-09T12:05:23.392Z,12.18
2022-12-09T12:07:58.807Z,11.74
2022-12-09T12:10:28.347Z,11.45
2022-12-09T12:13:01.094Z,11.16
2022-12-09T12:15:33.478Z,11.26
2022-12-09T12:18:04.577Z,10.78
2022-12-09T12:20:38.682Z,11.10
2022-12-09T12:23:23.859Z,11.77
2022-12-09T12:25:54.850Z,12.49
2022-12-09T12:28:55.325Z,13.20
2022-12-09T12:31:38.355Z,13.91
2022-12-09T12:34:24.692Z,14.40
2022-12-09T12:36:57.364Z,14.86
2022-12-09T12:39:36.839Z,15.30
2022-12-09T12:42:11.505Z,15.69
2022-12-09T12:45:02.589Z,16.01
2022-12-09T12:47:34.404Z,16.29
2022-12-09T12:50:32.984Z,16.46
2022-12-09T12:53:04.043Z,16.65
2022-12-09T12:55:42.518Z,16.87
2022-12-09T12:58:12.761Z,17.04
2022-12-09T13:00:52.105Z,17.19
2022-12-09T13:03:23.140Z,17.35
2022-12-09T13:05:53.628Z,17.45
2022-12-09T13:08:24.542Z,17.52
2022-12-09T13:10:53.318Z,17.60
2022-12-09T13:13:23.254Z,17.68
2022-12-09T13:15:52.797Z,17.82
2022-12-09T13:18:22.719Z,18.00
2022-12-09T13:20:53.102Z,18.15
2022-12-09T13:23:27.580Z,18.21
2022-12-09T13:26:03.086Z,18.23
2022-12-09T13:28:35.891Z,18.33
2022-12-09T13:31:03.877Z,18.40
2022-12-09T13:33:44.350Z,18.45
2022-12-09T13:36:17.315Z,18.49
2022-12-09T13:38:45.287Z,18.46
2022-12-09T13:42:16.327Z,18.48
2022-12-09T13:44:46.423Z,18.53
2022-12-09T13:47:15.928Z,18.58
2022-12-09T13:49:43.955Z,18.49
2022-12-09T13:52:13.249Z,18.03
2022-12-09T13:54:48.051Z,17.27
2022-12-09T13:57:19.738Z,17.00
2022-12-09T13:59:48.796Z,16.43
2022-12-09T14:02:28.801Z,15.50
2022-12-09T14:05:00.988Z,14.69
2022-12-09T14:07:34.014Z,13.98
2022-12-09T14:10:02.093Z,13.44
2022-12-09T14:13:21.847Z,12.95
2022-12-09T14:15:50.291Z,12.51
2022-12-09T14:18:30.292Z,12.26
2022-12-09T14:21:26.213Z,12.60
2022-12-09T14:24:33.878Z,12.80
2022-12-09T14:27:15.915Z,12.94
2022-12-09T14:29:49.082Z,13.47
2022-12-09T14:32:27.486Z,14.06
2022-12-09T14:35:22.362Z,14.61
2022-12-09T14:38:08.409Z,15.15
2022-12-09T14:40:48.462Z,15.55
2022-12-09T14:43:27.525Z,15.71
2022-12-09T14:45:57.676Z,15.78
2022-12-09T14:48:28.044Z,15.57
2022-12-09T14:51:17.515Z,14.77
2022-12-09T14:53:47.832Z,14.32
2022-12-09T14:56:18.748Z,14.19
2022-12-09T14:58:50.252Z,13.87
2022-12-09T15:01:19.292Z,13.31
2022-12-09T15:03:53.412Z,12.75
2022-12-09T15:06:21.489Z,12.25
2022-12-09T15:08:51.027Z,11.84
2022-12-09T15:11:21.534Z,11.51
2022-12-09T15:13:51.395Z,11.23
2022-12-09T15:16:26.085Z,10.99
2022-12-09T15:18:54.225Z,10.76
2022-12-09T15:21:26.836Z,10.56
2022-12-09T15:23:54.765Z,10.36
2022-12-09T15:26:26.754Z,10.21
2022-12-09T15:28:56.166Z,10.05
2022-12-09T15:31:26.601Z,9.90
2022-12-09T15:33:55.383Z,9.77
2022-12-09T15:36:25.188Z,9.64
2022-12-09T15:38:54.904Z,9.55
2022-12-09T15:41:42.147Z,9.40
2022-12-09T15:44:12.570Z,9.33
2022-12-09T15:46:41.019Z,9.24
2022-12-09T15:49:08.990Z,9.16
2022-12-09T15:51:37.111Z,9.06
2022-12-09T15:54:06.426Z,8.98
2022-12-09T15:56:37.947Z,8.92
2022-12-09T15:59:07.393Z,8.83
2022-12-09T16:01:35.578Z,8.69
2022-12-09T16:04:04.280Z,8.63
2022-12-09T16:06:34.094Z,8.55
2022-12-09T16:09:02.100Z,8.45
2022-12-09T16:11:38.373Z,8.36
2022-12-09T16:14:06.384Z,8.24
2022-12-09T16:16:40.382Z,8.15
2022-12-09T16:19:33.454Z,8.02
2022-12-09T16:22:02.076Z,7.92
2022-12-09T16:24:50.736Z,7.81
2022-12-09T16:27:20.661Z,7.67
2022-12-09T16:29:50.963Z,7.56
2022-12-09T16:32:24.802Z,7.42
2022-12-09T16:34:53.787Z,7.27
2022-12-09T16:37:29.614Z,7.20
2022-12-09T16:39:57.923Z,7.15
2022-12-09T16:42:32.441Z,7.10
2022-12-09T16:45:23.832Z,7.01
2022-12-09T16:47:54.894Z,6.97
2022-12-09T16:50:23.111Z,6.94
2022-12-09T16:52:51.167Z,6.91
2022-12-09T16:55:20.759Z,6.88
2022-12-09T16:57:50.104Z,6.87
2022-12-09T17:00:18.591Z,6.83
2022-12-09T17:02:47.617Z,6.78
2022-12-09T17:05:15.586Z,6.75
2022-12-09T17:07:43.677Z,6.68
2022-12-09T17:10:14.029Z,6.63
2022-12-09T17:12:42.020Z,6.58
2022-12-09T17:15:15.060Z,6.54
2022-12-09T17:17:48.229Z,6.52
2022-12-09T17:20:17.107Z,6.47
2022-12-09T17:22:45.042Z,6.44
2022-12-09T17:25:12.963Z,6.40
2022-12-09T17:27:40.881Z,6.38
2022-12-09T17:30:11.739Z,6.38
2022-12-09T17:32:39.989Z,6.32
2022-12-09T17:35:12.589Z,6.28
2022-12-09T17:37:40.993Z,6.25
2022-12-09T17:40:10.180Z,6.24
2022-12-09T17:42:38.378Z,6.19
2022-12-09T17:45:07.346Z,6.14
2022-12-09T17:47:36.931Z,6.13
2022-12-09T17:50:05.209Z,6.02
2022-12-09T17:52:33.469Z,6.04
2022-12-09T17:55:01.466Z,6.03
2022-12-09T17:57:29.422Z,6.00
2022-12-09T17:59:57.437Z,5.95
2022-12-09T18:02:25.428Z,5.94
2022-12-09T18:04:54.718Z,5.89
2022-12-09T18:07:23.095Z,5.85
2022-12-09T18:09:54.526Z,5.83
2022-12-09T18:12:22.873Z,5.79
2022-12-09T18:14:50.856Z,5.71
2022-12-09T18:17:18.822Z,5.60
2022-12-09T18:19:46.870Z,5.54
2022-12-09T18:22:16.159Z,5.51
2022-12-09T18:24:44.072Z,5.47
2022-12-09T18:27:11.971Z,5.41
2022-12-09T18:29:41.589Z,5.38
2022-12-09T18:32:09.658Z,5.35
2022-12-09T18:34:37.693Z,5.41
2022-12-09T18:37:05.604Z,5.42
2022-12-09T18:39:34.904Z,5.43
2022-12-09T18:42:03.493Z,5.41
2022-12-09T18:44:31.515Z,5.41
2022-12-09T18:47:00.296Z,5.40
2022-12-09T18:49:28.622Z,5.39
2022-12-09T18:51:56.702Z,5.37
2022-12-09T18:54:27.595Z,5.34
2022-12-09T18:56:56.971Z,5.33
2022-12-09T18:59:25.553Z,5.32
2022-12-09T19:01:53.720Z,5.31
2022-12-09T19:04:22.539Z,5.27
2022-12-09T19:06:51.565Z,5.25
2022-12-09T19:09:20.495Z,5.20
2022-12-09T19:11:48.902Z,5.15
2022-12-09T19:14:18.934Z,5.09
2022-12-09T19:16:47.043Z,5.03
2022-12-09T19:19:15.928Z,4.99
2022-12-09T19:21:43.998Z,4.94
2022-12-09T19:24:14.511Z,4.87
2022-12-09T19:26:43.817Z,4.86
2022-12-09T19:29:12.157Z,4.84
2022-12-09T19:31:42.255Z,4.84
2022-12-09T19:34:12.806Z,4.84
2022-12-09T19:36:40.790Z,4.72
2022-12-09T19:39:09.521Z,4.77
2022-12-09T19:41:37.881Z,4.75
2022-12-09T19:44:05.971Z,4.69
2022-12-09T19:46:34.192Z,4.64
2022-12-09T19:49:03.748Z,4.61
2022-12-09T19:51:32.258Z,4.59
2022-12-09T19:54:01.361Z,4.60
2022-12-09T19:56:29.398Z,4.59
2022-12-09T19:58:57.274Z,4.61
2022-12-09T20:01:26.309Z,4.62
2022-12-09T20:03:58.175Z,4.63
2022-12-09T20:06:27.654Z,4.61
2022-12-09T20:08:55.545Z,4.58
2022-12-09T20:11:24.182Z,4.54
2022-12-09T20:13:52.256Z,4.53
2022-12-09T20:16:21.360Z,4.51
2022-12-09T20:18:49.434Z,4.51
2022-12-09T20:21:18.189Z,4.51
2022-12-09T20:23:47.589Z,4.54
2022-12-09T20:26:16.638Z,4.53
2022-12-09T20:28:45.386Z,4.50
2022-12-09T20:31:14.177Z,4.44
2022-12-09T20:33:42.376Z,4.39
2022-12-09T20:36:11.381Z,4.39
2022-12-09T20:38:39.333Z,4.42
2022-12-09T20:41:11.169Z,4.46
2022-12-09T20:43:40.535Z,4.47
2022-12-09T20:46:09.096Z,4.48
2022-12-09T20:48:37.621Z,4.44
2022-12-09T20:51:06.443Z,4.39
2022-12-09T20:53:34.411Z,4.32
2022-12-09T20:56:02.461Z,4.26
2022-12-09T20:58:31.753Z,4.18
2022-12-09T21:01:05.849Z,4.16
2022-12-09T21:03:34.068Z,4.15
2022-12-09T21:06:02.158Z,4.14
2022-12-09T21:08:31.935Z,4.10
2022-12-09T21:11:06.615Z,3.99
2022-12-09T21:13:38.461Z,4.03
2022-12-09T21:16:07.238Z,4.03
2022-12-09T21:18:35.489Z,4.02
2022-12-09T21:21:03.603Z,4.04
2022-12-09T21:23:34.068Z,4.02
2022-12-09T21:26:04.939Z,4.01
2022-12-09T21:28:32.858Z,4.01
2022-12-09T21:31:09.342Z,4.01
2022-12-09T21:33:37.618Z,3.97
2022-12-09T21:36:07.350Z,3.96
2022-12-09T21:38:35.257Z,3.91
2022-12-09T21:41:04.814Z,3.90
2022-12-09T21:43:33.057Z,3.92
2022-12-09T21:46:04.185Z,3.91
2022-12-09T21:48:32.412Z,3.89
2022-12-09T21:51:01.375Z,3.91
2022-12-09T21:53:29.334Z,3.94
2022-12-09T21:56:01.773Z,3.99
2022-12-09T21:58:31.154Z,4.09
2022-12-09T22:00:59.233Z,4.23
2022-12-09T22:03:28.602Z,4.24
2022-12-09T22:05:58.464Z,4.42
2022-12-09T22:08:26.615Z,4.44
2022-12-09T22:10:54.677Z,4.47
2022-12-09T22:13:22.777Z,4.50
2022-12-09T22:15:50.691Z,4.44
2022-12-09T22:18:18.706Z,4.46
2022-12-09T22:21:23.652Z,4.47
2022-12-09T22:23:35.981Z,4.52
2022-12-09T22:26:05.707Z,4.55
2022-12-09T22:28:33.616Z,4.51
2022-12-09T22:31:02.108Z,4.47
2022-12-09T22:33:30.050Z,4.46
2022-12-09T22:36:02.999Z,4.44
2022-12-09T22:38:30.915Z,4.41
2022-12-09T22:40:58.794Z,4.39
2022-12-09T22:43:26.741Z,4.34
2022-12-09T22:45:54.775Z,4.33
2022-12-09T22:48:22.760Z,4.38
2022-12-09T22:50:50.662Z,4.41
2022-12-09T22:53:20.125Z,4.45
2022-12-09T22:55:48.293Z,4.53
2022-12-09T22:58:16.223Z,4.62
2022-12-09T23:00:44.206Z,4.68
2022-12-09T23:03:12.416Z,4.75
2022-12-09T23:05:40.438Z,4.80
2022-12-09T23:08:08.435Z,4.91
2022-12-09T23:10:37.762Z,5.01
2022-12-09T23:13:05.717Z,5.05
2022-12-09T23:15:33.942Z,5.06
2022-12-09T23:18:02.015Z,5.11
2022-12-09T23:20:30.108Z,5.16
2022-12-09T23:23:00.028Z,5.23
2022-12-09T23:25:27.944Z,5.24
2022-12-09T23:27:57.270Z,5.23
2022-12-09T23:30:25.186Z,5.17
2022-12-09T23:32:53.109Z,5.08
2022-12-09T23:35:21.022Z,4.99
2022-12-09T23:37:49.125Z,4.90
2022-12-09T23:40:17.373Z,4.84
2022-12-09T23:42:45.435Z,4.54
2022-12-09T23:45:14.824Z,4.59
2022-12-09T23:47:42.919Z,4.44
2022-12-09T23:50:11.489Z,4.33
2022-12-09T23:52:39.408Z,4.22
2022-12-09T23:55:08.569Z,4.15
2022-12-09T23:57:36.490Z,4.09
